createdAt,value
2023-05-14T00:01:13.220Z,99.90
2023-05-14T00:03:44.382Z,99.90
2023-05-14T00:06:15.413Z,99.90
2023-05-14T00:08:48.487Z,99.90
2023-05-14T00:11:19.785Z,99.90
2023-05-14T00:13:52.182Z,99.90
2023-05-14T00:16:24.636Z,99.90
2023-05-14T00:18:55.879Z,99.90
2023-05-14T00:21:27.094Z,99.90
2023-05-14T00:23:58.207Z,99.90
2023-05-14T00:26:29.377Z,99.90
2023-05-14T00:29:00.579Z,99.90
2023-05-14T00:31:31.793Z,99.90
2023-05-14T00:34:04.461Z,99.90
2023-05-14T00:36:35.635Z,99.90
2023-05-14T00:39:06.828Z,99.90
2023-05-14T00:41:37.891Z,99.90
2023-05-14T00:44:09.145Z,99.90
2023-05-14T00:46:40.296Z,99.90
2023-05-14T00:49:11.931Z,99.90
2023-05-14T00:51:48.042Z,99.90
2023-05-14T00:54:23.470Z,99.90
2023-05-14T00:56:55.868Z,99.90
2023-05-14T00:59:26.977Z,99.90
2023-05-14T01:01:59.311Z,99.90
2023-05-14T01:04:30.802Z,99.90
2023-05-14T01:07:25.303Z,99.90
2023-05-14T01:10:18.467Z,99.90
2023-05-14T01:12:54.728Z,99.90
2023-05-14T01:15:28.186Z,99.90
2023-05-14T01:18:01.678Z,99.90
2023-05-14T01:20:32.942Z,99.90
2023-05-14T01:23:04.528Z,99.90
2023-05-14T01:25:36.960Z,99.90
2023-05-14T01:28:13.264Z,99.90
2023-05-14T01:30:58.864Z,99.90
2023-05-14T01:33:31.883Z,99.90
2023-05-14T01:36:04.069Z,99.90
2023-05-14T01:38:36.775Z,99.90
2023-05-14T01:41:10.410Z,99.90
2023-05-14T01:43:45.733Z,99.90
2023-05-14T01:46:18.027Z,99.90
2023-05-14T01:48:49.545Z,99.90
2023-05-14T01:51:22.947Z,99.90
2023-05-14T01:53:53.142Z,99.90
2023-05-14T01:56:24.931Z,99.90
2023-05-14T01:58:57.320Z,99.90
2023-05-14T02:01:29.806Z,99.90
2023-05-14T02:04:02.362Z,99.90
2023-05-14T02:06:33.498Z,99.90
2023-05-14T02:09:04.606Z,99.90
2023-05-14T02:11:35.720Z,99.90
2023-05-14T02:14:06.853Z,99.90
2023-05-14T02:16:37.965Z,99.90
2023-05-14T02:19:12.817Z,99.90
2023-05-14T02:21:43.944Z,99.90
2023-05-14T02:24:15.908Z,99.90
2023-05-14T02:26:48.120Z,99.90
2023-05-14T02:29:21.754Z,99.90
2023-05-14T02:31:56.123Z,99.90
2023-05-14T02:34:27.164Z,99.90
2023-05-14T02:36:58.207Z,99.90
2023-05-14T02:39:29.133Z,99.90
2023-05-14T02:42:00.276Z,99.90
2023-05-14T02:44:32.613Z,99.90
2023-05-14T02:47:04.182Z,99.90
2023-05-14T02:49:37.398Z,99.90
2023-05-14T02:52:08.504Z,99.90
2023-05-14T02:54:40.061Z,99.90
2023-05-14T02:57:12.440Z,99.90
2023-05-14T02:59:43.616Z,99.90
2023-05-14T03:02:17.137Z,99.90
2023-05-14T03:04:49.393Z,99.90
2023-05-14T03:07:20.470Z,99.90
2023-05-14T03:09:51.474Z,99.90
2023-05-14T03:12:23.497Z,99.90
2023-05-14T03:14:54.652Z,99.90
2023-05-14T03:17:26.930Z,99.90
2023-05-14T03:19:58.093Z,99.90
2023-05-14T03:22:29.415Z,99.90
2023-05-14T03:25:00.523Z,99.90
2023-05-14T03:27:31.541Z,99.90
2023-05-14T03:30:03.952Z,99.90
2023-05-14T03:33:24.349Z,99.90
2023-05-14T03:35:20.232Z,99.90
2023-05-14T03:38:16.500Z,99.90
2023-05-14T03:41:07.100Z,99.90
2023-05-14T03:49:10.047Z,99.90
2023-05-14T03:51:42.474Z,99.90
2023-05-14T03:54:13.576Z,99.90
2023-05-14T03:56:45.221Z,99.90
2023-05-14T03:59:16.366Z,99.90
2023-05-14T04:01:48.091Z,99.90
2023-05-14T04:04:19.261Z,99.90
2023-05-14T04:06:51.183Z,99.90
2023-05-14T04:09:22.549Z,99.90
2023-05-14T04:11:53.739Z,99.90
2023-05-14T04:14:24.680Z,99.90
2023-05-14T04:16:57.717Z,99.90
2023-05-14T04:19:29.978Z,99.90
2023-05-14T04:22:07.230Z,99.90
2023-05-14T04:24:38.460Z,99.90
2023-05-14T04:27:09.776Z,99.90
2023-05-14T04:29:40.883Z,99.90
2023-05-14T04:32:11.964Z,99.90
2023-05-14T04:34:43.315Z,99.90
2023-05-14T04:37:14.448Z,99.90
2023-05-14T04:39:45.474Z,99.90
2023-05-14T04:42:16.772Z,99.90
2023-05-14T04:44:51.477Z,99.90
2023-05-14T04:47:23.307Z,99.90
2023-05-14T04:49:54.637Z,99.90
2023-05-14T04:52:25.629Z,99.90
2023-05-14T04:54:58.060Z,99.90
2023-05-14T04:57:29.363Z,99.90
2023-05-14T05:00:01.433Z,99.90
2023-05-14T05:02:32.873Z,99.90
2023-05-14T05:05:04.347Z,99.90
2023-05-14T05:07:35.983Z,99.90
2023-05-14T05:10:07.478Z,99.90
2023-05-14T05:12:38.554Z,99.90
2023-05-14T05:15:10.912Z,99.90
2023-05-14T05:17:42.469Z,99.90
2023-05-14T05:20:14.529Z,99.90
2023-05-14T05:22:48.170Z,99.90
2023-05-14T05:25:19.061Z,99.90
2023-05-14T05:27:50.392Z,99.90
2023-05-14T05:30:21.844Z,99.90
2023-05-14T05:32:53.095Z,99.90
2023-05-14T05:35:24.353Z,99.90
2023-05-14T05:37:55.328Z,99.90
2023-05-14T05:40:26.917Z,99.90
2023-05-14T05:42:57.865Z,99.90
2023-05-14T05:45:29.894Z,99.90
2023-05-14T05:48:04.017Z,99.90
2023-05-14T05:50:34.535Z,99.90
2023-05-14T05:53:05.768Z,99.90
2023-05-14T05:55:36.825Z,99.90
2023-05-14T05:58:07.798Z,99.90
2023-05-14T06:00:38.818Z,99.90
2023-05-14T06:03:10.043Z,99.90
2023-05-14T06:05:41.500Z,99.90
2023-05-14T06:08:12.922Z,99.90
2023-05-14T06:10:45.613Z,99.90
2023-05-14T06:13:16.598Z,99.90
2023-05-14T06:15:47.690Z,99.90
2023-05-14T06:18:18.676Z,99.90
2023-05-14T06:20:50.041Z,99.90
2023-05-14T06:23:22.482Z,99.90
2023-05-14T06:25:54.474Z,99.90
2023-05-14T06:28:25.719Z,99.90
2023-05-14T06:30:56.990Z,99.90
2023-05-14T06:33:29.819Z,99.90
2023-05-14T06:36:02.835Z,99.90
2023-05-14T06:38:33.833Z,99.90
2023-05-14T06:41:04.797Z,99.90
2023-05-14T06:43:35.760Z,99.90
2023-05-14T06:46:07.090Z,99.90
2023-05-14T06:48:38.206Z,99.90
2023-05-14T06:51:09.355Z,99.90
2023-05-14T06:53:40.820Z,99.90
2023-05-14T06:56:13.630Z,99.90
2023-05-14T06:58:44.662Z,99.90
2023-05-14T07:01:16.021Z,99.90
2023-05-14T07:03:48.903Z,99.90
2023-05-14T07:06:20.650Z,99.90
2023-05-14T07:08:52.106Z,99.90
2023-05-14T07:11:23.300Z,99.90
2023-05-14T07:13:55.109Z,99.90
2023-05-14T07:16:26.229Z,99.90
2023-05-14T07:18:57.690Z,99.90
2023-05-14T07:21:29.150Z,99.90
2023-05-14T07:24:00.623Z,99.90
2023-05-14T07:26:32.609Z,99.90
2023-05-14T07:29:03.805Z,99.90
2023-05-14T07:31:35.015Z,99.90
2023-05-14T07:34:06.177Z,99.90
2023-05-14T07:36:37.292Z,99.90
2023-05-14T07:39:08.315Z,99.90
2023-05-14T07:41:39.488Z,99.90
2023-05-14T07:44:10.738Z,99.90
2023-05-14T07:46:42.402Z,99.90
2023-05-14T07:49:13.567Z,99.90
2023-05-14T07:51:45.028Z,99.90
2023-05-14T07:54:16.166Z,99.90
2023-05-14T07:56:47.291Z,99.90
2023-05-14T07:59:19.886Z,99.90
2023-05-14T08:01:51.054Z,99.90
2023-05-14T08:04:29.633Z,99.90
2023-05-14T08:06:59.689Z,99.90
2023-05-14T08:09:40.003Z,99.90
2023-05-14T08:12:09.248Z,99.90
2023-05-14T08:14:40.413Z,99.90
2023-05-14T08:17:16.349Z,99.90
2023-05-14T08:19:48.914Z,99.90
2023-05-14T08:22:27.065Z,99.90
2023-05-14T08:25:03.125Z,99.90
2023-05-14T08:27:42.352Z,99.90
2023-05-14T08:30:14.165Z,99.90
2023-05-14T08:32:45.186Z,99.90
2023-05-14T08:35:22.613Z,99.90
2023-05-14T08:37:53.724Z,99.90
2023-05-14T08:40:25.179Z,99.90
2023-05-14T08:42:57.683Z,99.90
2023-05-14T08:45:36.101Z,99.90
2023-05-14T08:48:10.211Z,99.90
2023-05-14T08:50:41.488Z,99.90
2023-05-14T08:53:13.187Z,99.90
2023-05-14T08:55:45.401Z,99.70
2023-05-14T08:58:17.733Z,99.70
2023-05-14T09:00:49.059Z,98.90
2023-05-14T09:03:22.301Z,99.90
2023-05-14T09:05:56.745Z,99.70
2023-05-14T09:08:29.798Z,99.90
2023-05-14T09:11:07.038Z,99.60
2023-05-14T09:13:40.785Z,99.90
2023-05-14T09:16:14.974Z,99.80
2023-05-14T09:18:50.564Z,99.50
2023-05-14T09:21:22.821Z,99.50
2023-05-14T09:23:56.904Z,99.80
2023-05-14T09:26:32.248Z,99.20
2023-05-14T09:29:10.394Z,99.90
2023-05-14T09:31:39.341Z,99.50
2023-05-14T09:34:14.930Z,99.20
2023-05-14T09:36:49.448Z,99.40
2023-05-14T09:39:28.190Z,99.10
2023-05-14T09:42:03.410Z,99.50
2023-05-14T09:44:38.746Z,99.90
2023-05-14T09:47:10.316Z,99.90
2023-05-14T09:49:42.557Z,99.20
2023-05-14T09:52:14.806Z,99.00
2023-05-14T09:54:48.262Z,98.80
2023-05-14T09:57:29.152Z,99.20
2023-05-14T10:00:10.097Z,99.10
2023-05-14T10:02:42.669Z,99.40
2023-05-14T10:05:18.752Z,98.90
2023-05-14T10:07:56.728Z,99.10
2023-05-14T10:10:30.171Z,98.60
2023-05-14T10:13:11.381Z,99.20
2023-05-14T10:16:15.482Z,99.00
2023-05-14T10:18:54.167Z,99.10
2023-05-14T10:21:31.096Z,99.00
2023-05-14T10:24:02.972Z,99.10
2023-05-14T10:26:47.114Z,99.40
2023-05-14T10:29:19.356Z,99.50
2023-05-14T10:31:52.407Z,99.40
2023-05-14T10:34:43.603Z,99.40
2023-05-14T10:37:17.147Z,99.40
2023-05-14T10:40:02.222Z,99.60
2023-05-14T10:42:32.882Z,99.30
2023-05-14T10:45:10.450Z,99.50
2023-05-14T10:47:46.553Z,99.10
2023-05-14T10:50:18.760Z,99.40
2023-05-14T10:52:49.954Z,99.50
2023-05-14T10:55:21.017Z,99.30
2023-05-14T10:57:53.860Z,98.90
2023-05-14T11:00:27.148Z,98.90
2023-05-14T11:02:59.964Z,99.30
2023-05-14T11:05:33.714Z,99.40
2023-05-14T11:08:09.151Z,99.00
2023-05-14T11:10:42.491Z,99.20
2023-05-14T11:13:24.229Z,99.60
2023-05-14T11:16:02.245Z,99.90
2023-05-14T11:18:37.657Z,99.90
2023-05-14T11:21:10.497Z,99.80
2023-05-14T11:23:41.660Z,99.90
2023-05-14T11:26:13.958Z,99.90
2023-05-14T11:28:48.167Z,99.90
2023-05-14T11:31:21.018Z,99.90
2023-05-14T11:33:52.085Z,99.90
2023-05-14T11:36:23.308Z,99.90
2023-05-14T11:38:58.895Z,99.90
2023-05-14T11:41:27.530Z,99.90
2023-05-14T11:43:58.883Z,99.90
2023-05-14T11:46:31.449Z,99.90
2023-05-14T11:49:02.734Z,99.90
2023-05-14T11:51:33.767Z,99.90
2023-05-14T11:54:22.289Z,99.90
2023-05-14T11:57:05.863Z,99.90
2023-05-14T11:59:39.881Z,99.90
2023-05-14T12:02:15.333Z,99.90
2023-05-14T12:04:48.245Z,99.90
2023-05-14T12:07:20.004Z,99.90
2023-05-14T12:09:53.437Z,99.90
2023-05-14T12:12:25.232Z,99.90
2023-05-14T12:14:58.296Z,99.90
2023-05-14T12:17:29.586Z,99.90
2023-05-14T12:20:07.921Z,99.90
2023-05-14T12:22:44.881Z,99.90
2023-05-14T12:25:21.260Z,99.90
2023-05-14T12:28:08.183Z,99.90
2023-05-14T12:30:26.631Z,99.90
2023-05-14T12:36:20.441Z,99.90
2023-05-14T12:38:46.854Z,99.90
2023-05-14T12:41:28.977Z,99.90
2023-05-14T12:43:54.350Z,99.90
2023-05-14T12:46:27.509Z,99.90
2023-05-14T12:49:06.056Z,99.90
2023-05-14T12:52:17.024Z,99.90
2023-05-14T12:54:15.352Z,99.90
2023-05-14T12:56:54.647Z,99.90
2023-05-14T12:59:30.467Z,99.90
2023-05-14T13:02:20.134Z,99.90
2023-05-14T13:04:51.400Z,99.90
2023-05-14T13:10:29.035Z,99.90
2023-05-14T13:13:08.569Z,99.90
2023-05-14T13:15:48.051Z,99.90
2023-05-14T13:21:12.075Z,99.90
2023-05-14T13:23:44.406Z,99.90
2023-05-14T13:26:15.358Z,99.90
2023-05-14T13:28:46.347Z,99.90
2023-05-14T13:31:23.059Z,99.90
2023-05-14T13:33:55.290Z,99.90
2023-05-14T13:36:30.044Z,99.90
2023-05-14T13:39:02.046Z,99.90
2023-05-14T13:41:35.858Z,99.90
2023-05-14T13:44:18.165Z,99.90
2023-05-14T13:46:57.343Z,99.90
2023-05-14T13:50:04.668Z,99.90
2023-05-14T13:58:05.998Z,99.90
2023-05-14T14:00:43.952Z,99.90
2023-05-14T14:06:12.070Z,99.90
2023-05-14T14:09:03.725Z,99.90
2023-05-14T14:11:40.079Z,99.90
2023-05-14T14:14:13.233Z,99.90
2023-05-14T14:16:45.280Z,99.90
2023-05-14T14:19:31.911Z,99.90
2023-05-14T14:21:55.839Z,99.90
2023-05-14T14:24:29.214Z,99.90
2023-05-14T14:27:05.255Z,99.90
2023-05-14T14:29:59.714Z,99.90
2023-05-14T14:32:34.347Z,99.90
2023-05-14T14:35:09.092Z,99.90
2023-05-14T14:37:40.359Z,99.90
2023-05-14T14:40:15.354Z,99.90
2023-05-14T14:42:56.505Z,99.90
2023-05-14T14:45:27.343Z,99.90
2023-05-14T14:48:18.396Z,99.90
2023-05-14T14:50:48.992Z,99.90
2023-05-14T14:53:22.620Z,99.90
2023-05-14T14:56:04.951Z,99.90
2023-05-14T14:58:32.887Z,99.90
2023-05-14T15:01:09.574Z,99.90
2023-05-14T15:03:55.483Z,99.90
2023-05-14T15:06:26.921Z,99.90
2023-05-14T15:08:59.975Z,99.90
2023-05-14T15:11:37.969Z,99.90
2023-05-14T15:14:11.517Z,99.90
2023-05-14T15:59:29.644Z,99.90
2023-05-14T16:02:06.347Z,99.90
2023-05-14T16:04:41.684Z,99.90
2023-05-14T16:07:23.934Z,99.90
2023-05-14T16:09:55.226Z,99.90
2023-05-14T16:12:29.863Z,99.90
2023-05-14T16:15:01.261Z,99.90
2023-05-14T16:17:36.436Z,99.90
2023-05-14T16:20:08.194Z,99.90
2023-05-14T16:22:43.535Z,99.90
2023-05-14T16:25:14.672Z,99.90
2023-05-14T16:27:45.713Z,99.90
2023-05-14T16:30:19.735Z,99.90
2023-05-14T16:36:02.670Z,99.90
2023-05-14T16:44:21.013Z,99.90
2023-05-14T16:46:53.938Z,99.90
2023-05-14T16:49:42.120Z,99.90
2023-05-14T16:52:04.114Z,99.90
2023-05-14T16:54:54.609Z,99.90
2023-05-14T17:00:19.167Z,99.90
2023-05-14T17:02:53.940Z,99.90
2023-05-14T17:05:24.578Z,99.90
2023-05-14T17:08:00.156Z,99.90
2023-05-14T17:10:44.827Z,99.90
2023-05-14T17:13:16.077Z,99.90
2023-05-14T17:15:54.039Z,99.90
2023-05-14T17:18:26.211Z,99.90
2023-05-14T17:21:17.220Z,99.90
2023-05-14T17:26:48.517Z,99.90
2023-05-14T17:29:23.463Z,99.90
2023-05-14T17:32:10.189Z,99.90
2023-05-14T17:34:37.082Z,99.90
2023-05-14T17:37:08.246Z,99.90
2023-05-14T17:39:45.021Z,99.90
2023-05-14T17:42:16.055Z,99.90
2023-05-14T17:44:50.709Z,99.90
2023-05-14T17:47:28.527Z,99.90
2023-05-14T17:50:14.309Z,99.90
2023-05-14T17:52:40.320Z,99.90
2023-05-14T17:55:15.862Z,99.90
2023-05-14T17:57:47.276Z,99.90
2023-05-14T18:00:18.710Z,99.90
2023-05-14T18:02:49.780Z,99.90
2023-05-14T18:05:21.008Z,99.90
2023-05-14T18:07:52.251Z,99.90
2023-05-14T18:10:23.391Z,99.90
2023-05-14T18:12:54.613Z,99.90
2023-05-14T18:15:26.602Z,99.90
2023-05-14T18:17:57.623Z,99.90
2023-05-14T18:20:28.716Z,99.90
2023-05-14T18:22:59.815Z,99.90
2023-05-14T18:25:31.047Z,99.90
2023-05-14T18:28:02.582Z,99.90
2023-05-14T18:30:33.814Z,99.90
2023-05-14T18:33:05.165Z,99.90
2023-05-14T18:35:36.565Z,99.90
2023-05-14T18:38:09.155Z,99.90
2023-05-14T18:40:40.288Z,99.90
2023-05-14T18:43:12.604Z,99.90
2023-05-14T18:45:43.728Z,99.90
2023-05-14T18:48:15.090Z,99.90
2023-05-14T18:50:46.130Z,99.90
2023-05-14T18:53:17.361Z,99.90
2023-05-14T18:55:48.527Z,99.90
2023-05-14T18:58:19.481Z,99.90
2023-05-14T19:00:50.479Z,99.90
2023-05-14T19:03:21.699Z,99.90
2023-05-14T19:05:52.928Z,99.90
2023-05-14T19:08:24.009Z,99.90
2023-05-14T19:10:55.114Z,99.90
2023-05-14T19:13:26.363Z,99.90
2023-05-14T19:15:57.504Z,99.90
2023-05-14T19:18:28.610Z,99.90
2023-05-14T19:21:00.245Z,99.90
2023-05-14T19:23:32.267Z,99.90
2023-05-14T19:26:03.442Z,99.90
2023-05-14T19:28:34.596Z,99.90
2023-05-14T19:31:05.625Z,99.90
2023-05-14T19:33:36.661Z,99.90
2023-05-14T19:36:08.461Z,99.90
2023-05-14T19:38:39.592Z,99.90
2023-05-14T19:41:10.591Z,99.90
2023-05-14T19:43:41.692Z,99.90
2023-05-14T19:46:13.200Z,99.90
2023-05-14T19:48:44.317Z,99.90
2023-05-14T19:51:15.474Z,99.90
2023-05-14T19:53:46.575Z,99.90
2023-05-14T19:56:18.078Z,99.90
2023-05-14T19:58:49.158Z,99.90
2023-05-14T20:01:20.476Z,99.90
2023-05-14T20:03:51.647Z,99.90
2023-05-14T20:06:22.656Z,99.90
2023-05-14T20:08:53.748Z,99.90
2023-05-14T20:11:24.876Z,99.90
2023-05-14T20:13:56.138Z,99.90
2023-05-14T20:16:27.220Z,99.90
2023-05-14T20:18:58.363Z,99.90
2023-05-14T20:21:29.426Z,99.90
2023-05-14T20:24:00.550Z,99.90
2023-05-14T20:26:31.662Z,99.90
2023-05-14T20:29:02.690Z,99.90
2023-05-14T20:31:33.802Z,99.90
2023-05-14T20:34:05.026Z,99.90
2023-05-14T20:36:36.931Z,99.90
2023-05-14T20:39:07.959Z,99.90
2023-05-14T20:41:38.972Z,99.90
2023-05-14T20:44:09.971Z,99.90
2023-05-14T20:46:41.145Z,99.90
2023-05-14T20:49:12.908Z,99.90
2023-05-14T20:51:44.027Z,99.90
2023-05-14T20:54:15.138Z,99.90
2023-05-14T20:56:46.180Z,99.90
2023-05-14T20:59:17.244Z,99.90
2023-05-14T21:01:48.489Z,99.90
2023-05-14T21:04:19.910Z,99.90
2023-05-14T21:06:50.943Z,99.90
2023-05-14T21:09:23.362Z,99.90
2023-05-14T21:11:54.368Z,99.90
2023-05-14T21:14:25.452Z,99.90
2023-05-14T21:16:56.498Z,99.90
2023-05-14T21:19:30.623Z,99.90
2023-05-14T21:22:01.664Z,99.90
2023-05-14T21:24:32.674Z,99.90
2023-05-14T21:27:03.658Z,99.90
2023-05-14T21:29:34.857Z,99.90
2023-05-14T21:32:06.033Z,99.90
2023-05-14T21:34:37.235Z,99.90
2023-05-14T21:37:08.506Z,99.90
2023-05-14T21:39:39.682Z,99.90
2023-05-14T21:42:11.354Z,99.90
2023-05-14T21:44:42.576Z,99.90
2023-05-14T21:47:13.560Z,99.90
2023-05-14T21:49:44.749Z,99.90
2023-05-14T21:52:16.104Z,99.90
2023-05-14T21:54:47.169Z,99.90
2023-05-14T21:57:18.565Z,99.90
2023-05-14T21:59:49.645Z,99.90
2023-05-14T22:02:20.810Z,99.90
2023-05-14T22:04:51.928Z,99.90
2023-05-14T22:07:22.926Z,99.90
2023-05-14T22:09:54.117Z,99.90
2023-05-14T22:12:25.237Z,99.90
2023-05-14T22:14:56.323Z,99.90
2023-05-14T22:17:27.438Z,99.90
2023-05-14T22:19:58.524Z,99.90
2023-05-14T22:22:29.527Z,99.90
2023-05-14T22:25:02.428Z,99.90
2023-05-14T22:27:33.601Z,99.90
2023-05-14T22:36:49.799Z,99.90
2023-05-14T22:40:10.454Z,99.90
2023-05-14T23:04:13.098Z,99.90
2023-05-14T23:06:44.833Z,99.90
2023-05-14T23:09:17.357Z,99.90
2023-05-14T23:11:50.096Z,99.90
2023-05-14T23:14:21.538Z,99.90
2023-05-14T23:16:55.746Z,99.90
2023-05-14T23:19:28.106Z,99.90
2023-05-14T23:22:08.316Z,99.90
2023-05-14T23:24:44.078Z,99.90
2023-05-14T23:30:03.165Z,99.90
2023-05-14T23:32:38.536Z,99.90
2023-05-14T23:35:11.807Z,99.90
2023-05-14T23:37:44.268Z,99.90
2023-05-14T23:40:19.384Z,99.90
2023-05-14T23:42:49.449Z,99.90
2023-05-14T23:45:20.818Z,99.90
2023-05-14T23:48:00.627Z,99.90
2023-05-14T23:50:32.408Z,99.90
2023-05-14T23:53:03.488Z,99.90
2023-05-14T23:55:35.095Z,99.90
2023-05-14T23:58:10.097Z,99.90
